sensor_id;sensor_type;location;lat;lon;timestamp;P1;durP1;ratioP1;P2;durP2;ratioP2
42084;SDS011;27746;52.228;20.890;2022-08-19T00:00:49;11.82;;;8.85;;
42084;SDS011;27746;52.228;20.890;2022-08-19T00:03:16;10.02;;;8.00;;
42084;SDS011;27746;52.228;20.890;2022-08-19T00:05:43;13.27;;;9.32;;
42084;SDS011;27746;52.228;20.890;2022-08-19T00:08:10;13.18;;;8.90;;
42084;SDS011;27746;52.228;20.890;2022-08-19T00:10:38;13.93;;;9.23;;
42084;SDS011;27746;52.228;20.890;2022-08-19T00:13:05;13.85;;;8.77;;
42084;SDS011;27746;52.228;20.890;2022-08-19T00:15:32;13.57;;;9.05;;
42084;SDS011;27746;52.228;20.890;2022-08-19T00:17:58;13.45;;;9.23;;
42084;SDS011;27746;52.228;20.890;2022-08-19T00:20:25;11.73;;;9.35;;
42084;SDS011;27746;52.228;20.890;2022-08-19T00:22:52;15.45;;;9.07;;
42084;SDS011;27746;52.228;20.890;2022-08-19T00:25:19;13.57;;;9.18;;
42084;SDS011;27746;52.228;20.890;2022-08-19T00:27:47;11.57;;;9.32;;
42084;SDS011;27746;52.228;20.890;2022-08-19T00:30:14;18.02;;;10.40;;
42084;SDS011;27746;52.228;20.890;2022-08-19T00:32:41;20.65;;;10.48;;
42084;SDS011;27746;52.228;20.890;2022-08-19T00:35:09;17.15;;;9.80;;
42084;SDS011;27746;52.228;20.890;2022-08-19T00:37:36;12.77;;;9.38;;
42084;SDS011;27746;52.228;20.890;2022-08-19T00:40:08;14.63;;;9.32;;
42084;SDS011;27746;52.228;20.890;2022-08-19T00:42:36;14.07;;;8.80;;
42084;SDS011;27746;52.228;20.890;2022-08-19T00:45:05;15.40;;;9.93;;
42084;SDS011;27746;52.228;20.890;2022-08-19T00:47:36;15.60;;;9.40;;
42084;SDS011;27746;52.228;20.890;2022-08-19T00:50:03;13.82;;;9.55;;
42084;SDS011;27746;52.228;20.890;2022-08-19T00:52:32;15.15;;;9.50;;
42084;SDS011;27746;52.228;20.890;2022-08-19T00:55:03;16.05;;;8.85;;
42084;SDS011;27746;52.228;20.890;2022-08-19T00:57:38;13.80;;;9.20;;
42084;SDS011;27746;52.228;20.890;2022-08-19T01:00:11;13.27;;;9.43;;
42084;SDS011;27746;52.228;20.890;2022-08-19T01:02:41;12.43;;;9.75;;
42084;SDS011;27746;52.228;20.890;2022-08-19T01:05:10;17.58;;;9.13;;
42084;SDS011;27746;52.228;20.890;2022-08-19T01:07:40;13.15;;;9.98;;
42084;SDS011;27746;52.228;20.890;2022-08-19T01:10:08;14.10;;;9.07;;
42084;SDS011;27746;52.228;20.890;2022-08-19T01:12:38;12.30;;;8.95;;
42084;SDS011;27746;52.228;20.890;2022-08-19T01:15:05;13.45;;;9.02;;
42084;SDS011;27746;52.228;20.890;2022-08-19T01:17:36;15.88;;;10.43;;
42084;SDS011;27746;52.228;20.890;2022-08-19T01:20:05;13.75;;;9.30;;
42084;SDS011;27746;52.228;20.890;2022-08-19T01:22:37;16.92;;;10.13;;
42084;SDS011;27746;52.228;20.890;2022-08-19T01:25:07;16.23;;;10.00;;
42084;SDS011;27746;52.228;20.890;2022-08-19T01:27:38;16.25;;;9.90;;
42084;SDS011;27746;52.228;20.890;2022-08-19T01:30:06;13.38;;;9.02;;
42084;SDS011;27746;52.228;20.890;2022-08-19T01:32:34;15.38;;;9.90;;
42084;SDS011;27746;52.228;20.890;2022-08-19T01:35:01;17.67;;;11.02;;
42084;SDS011;27746;52.228;20.890;2022-08-19T01:37:28;12.70;;;9.65;;
42084;SDS011;27746;52.228;20.890;2022-08-19T01:39:57;17.20;;;10.07;;
42084;SDS011;27746;52.228;20.890;2022-08-19T01:42:24;15.25;;;10.45;;
42084;SDS011;27746;52.228;20.890;2022-08-19T01:44:51;14.93;;;10.13;;
42084;SDS011;27746;52.228;20.890;2022-08-19T01:47:17;15.00;;;10.15;;
42084;SDS011;27746;52.228;20.890;2022-08-19T01:49:44;18.33;;;10.75;;
42084;SDS011;27746;52.228;20.890;2022-08-19T01:52:11;15.45;;;10.20;;
42084;SDS011;27746;52.228;20.890;2022-08-19T01:54:38;16.65;;;10.57;;
42084;SDS011;27746;52.228;20.890;2022-08-19T01:57:07;14.38;;;10.35;;
42084;SDS011;27746;52.228;20.890;2022-08-19T01:59:38;13.45;;;10.25;;
42084;SDS011;27746;52.228;20.890;2022-08-19T02:02:06;16.33;;;10.73;;
42084;SDS011;27746;52.228;20.890;2022-08-19T02:04:33;16.60;;;9.27;;
42084;SDS011;27746;52.228;20.890;2022-08-19T02:07:00;16.05;;;10.43;;
42084;SDS011;27746;52.228;20.890;2022-08-19T02:09:27;15.93;;;10.35;;
42084;SDS011;27746;52.228;20.890;2022-08-19T02:11:54;16.33;;;10.80;;
42084;SDS011;27746;52.228;20.890;2022-08-19T02:14:22;16.33;;;10.80;;
42084;SDS011;27746;52.228;20.890;2022-08-19T02:16:49;15.80;;;10.90;;
42084;SDS011;27746;52.228;20.890;2022-08-19T02:19:15;14.18;;;10.93;;
42084;SDS011;27746;52.228;20.890;2022-08-19T02:21:42;17.25;;;10.60;;
42084;SDS011;27746;52.228;20.890;2022-08-19T02:24:09;16.10;;;11.00;;
42084;SDS011;27746;52.228;20.890;2022-08-19T02:26:37;17.33;;;11.00;;
42084;SDS011;27746;52.228;20.890;2022-08-19T02:29:04;17.38;;;11.07;;
42084;SDS011;27746;52.228;20.890;2022-08-19T02:31:32;19.13;;;11.00;;
42084;SDS011;27746;52.228;20.890;2022-08-19T02:33:59;16.40;;;11.00;;
42084;SDS011;27746;52.228;20.890;2022-08-19T02:36:26;17.33;;;11.25;;
42084;SDS011;27746;52.228;20.890;2022-08-19T02:38:53;15.88;;;11.80;;
42084;SDS011;27746;52.228;20.890;2022-08-19T02:41:20;24.50;;;11.48;;
42084;SDS011;27746;52.228;20.890;2022-08-19T02:43:47;17.92;;;11.13;;
42084;SDS011;27746;52.228;20.890;2022-08-19T02:46:15;17.35;;;11.85;;
42084;SDS011;27746;52.228;20.890;2022-08-19T02:48:47;15.27;;;11.00;;
42084;SDS011;27746;52.228;20.890;2022-08-19T02:51:18;14.98;;;10.82;;
42084;SDS011;27746;52.228;20.890;2022-08-19T02:53:46;14.15;;;11.70;;
42084;SDS011;27746;52.228;20.890;2022-08-19T02:56:12;15.85;;;11.40;;
42084;SDS011;27746;52.228;20.890;2022-08-19T02:58:40;26.40;;;12.57;;
42084;SDS011;27746;52.228;20.890;2022-08-19T03:01:08;20.38;;;11.85;;
42084;SDS011;27746;52.228;20.890;2022-08-19T03:03:36;15.63;;;12.00;;
42084;SDS011;27746;52.228;20.890;2022-08-19T03:06:06;16.10;;;12.52;;
42084;SDS011;27746;52.228;20.890;2022-08-19T03:08:34;18.98;;;11.63;;
42084;SDS011;27746;52.228;20.890;2022-08-19T03:11:02;16.90;;;11.18;;
42084;SDS011;27746;52.228;20.890;2022-08-19T03:13:29;17.92;;;11.55;;
42084;SDS011;27746;52.228;20.890;2022-08-19T03:15:56;16.77;;;11.20;;
42084;SDS011;27746;52.228;20.890;2022-08-19T03:18:23;20.48;;;11.32;;
42084;SDS011;27746;52.228;20.890;2022-08-19T03:20:50;22.05;;;12.07;;
42084;SDS011;27746;52.228;20.890;2022-08-19T03:23:21;18.15;;;11.45;;
42084;SDS011;27746;52.228;20.890;2022-08-19T03:25:50;18.90;;;12.25;;
42084;SDS011;27746;52.228;20.890;2022-08-19T03:28:18;15.82;;;12.38;;
42084;SDS011;27746;52.228;20.890;2022-08-19T03:30:57;16.50;;;11.45;;
42084;SDS011;27746;52.228;20.890;2022-08-19T03:33:26;24.35;;;11.88;;
42084;SDS011;27746;52.228;20.890;2022-08-19T03:36:00;15.82;;;11.88;;
42084;SDS011;27746;52.228;20.890;2022-08-19T03:38:31;17.13;;;11.68;;
42084;SDS011;27746;52.228;20.890;2022-08-19T03:41:01;16.73;;;12.15;;
42084;SDS011;27746;52.228;20.890;2022-08-19T03:46:02;18.08;;;11.68;;
42084;SDS011;27746;52.228;20.890;2022-08-19T03:48:31;18.67;;;12.43;;
42084;SDS011;27746;52.228;20.890;2022-08-19T03:50:58;19.52;;;12.85;;
42084;SDS011;27746;52.228;20.890;2022-08-19T03:53:27;20.10;;;12.10;;
42084;SDS011;27746;52.228;20.890;2022-08-19T03:55:57;18.40;;;12.55;;
42084;SDS011;27746;52.228;20.890;2022-08-19T03:58:25;36.60;;;15.80;;
42084;SDS011;27746;52.228;20.890;2022-08-19T04:00:54;34.20;;;13.65;;
42084;SDS011;27746;52.228;20.890;2022-08-19T04:03:22;23.27;;;12.50;;
42084;SDS011;27746;52.228;20.890;2022-08-19T04:05:49;20.10;;;12.02;;
42084;SDS011;27746;52.228;20.890;2022-08-19T04:08:16;19.73;;;11.77;;
42084;SDS011;27746;52.228;20.890;2022-08-19T04:10:45;21.92;;;13.10;;
42084;SDS011;27746;52.228;20.890;2022-08-19T04:13:13;29.08;;;12.40;;
42084;SDS011;27746;52.228;20.890;2022-08-19T04:15:41;20.73;;;12.73;;
42084;SDS011;27746;52.228;20.890;2022-08-19T04:18:08;22.00;;;12.25;;
42084;SDS011;27746;52.228;20.890;2022-08-19T04:20:40;22.58;;;12.50;;
42084;SDS011;27746;52.228;20.890;2022-08-19T04:23:08;21.53;;;13.13;;
42084;SDS011;27746;52.228;20.890;2022-08-19T04:25:36;21.80;;;12.68;;
42084;SDS011;27746;52.228;20.890;2022-08-19T04:28:04;19.38;;;11.98;;
42084;SDS011;27746;52.228;20.890;2022-08-19T04:30:36;23.20;;;12.75;;
42084;SDS011;27746;52.228;20.890;2022-08-19T04:33:04;37.63;;;13.73;;
42084;SDS011;27746;52.228;20.890;2022-08-19T04:35:34;19.58;;;12.30;;
42084;SDS011;27746;52.228;20.890;2022-08-19T04:38:02;18.67;;;12.90;;
42084;SDS011;27746;52.228;20.890;2022-08-19T04:40:29;20.00;;;12.25;;
42084;SDS011;27746;52.228;20.890;2022-08-19T04:43:14;16.85;;;12.23;;
42084;SDS011;27746;52.228;20.890;2022-08-19T04:45:42;23.30;;;11.50;;
42084;SDS011;27746;52.228;20.890;2022-08-19T04:48:09;17.02;;;12.02;;
42084;SDS011;27746;52.228;20.890;2022-08-19T04:50:39;22.05;;;13.45;;
42084;SDS011;27746;52.228;20.890;2022-08-19T04:53:07;19.40;;;12.32;;
42084;SDS011;27746;52.228;20.890;2022-08-19T04:55:38;20.63;;;12.57;;
42084;SDS011;27746;52.228;20.890;2022-08-19T04:58:06;17.38;;;12.05;;
42084;SDS011;27746;52.228;20.890;2022-08-19T05:00:33;22.92;;;13.23;;
42084;SDS011;27746;52.228;20.890;2022-08-19T05:03:04;22.65;;;12.15;;
42084;SDS011;27746;52.228;20.890;2022-08-19T05:05:32;25.52;;;12.88;;
42084;SDS011;27746;52.228;20.890;2022-08-19T05:07:58;26.10;;;13.20;;
42084;SDS011;27746;52.228;20.890;2022-08-19T05:10:25;24.98;;;13.05;;
42084;SDS011;27746;52.228;20.890;2022-08-19T05:12:52;20.70;;;11.57;;
42084;SDS011;27746;52.228;20.890;2022-08-19T05:15:19;19.88;;;11.35;;
42084;SDS011;27746;52.228;20.890;2022-08-19T05:17:46;26.05;;;12.43;;
42084;SDS011;27746;52.228;20.890;2022-08-19T05:20:28;16.65;;;12.00;;
42084;SDS011;27746;52.228;20.890;2022-08-19T05:23:12;19.52;;;12.18;;
42084;SDS011;27746;52.228;20.890;2022-08-19T05:25:40;21.20;;;11.70;;
42084;SDS011;27746;52.228;20.890;2022-08-19T05:28:07;26.48;;;12.55;;
42084;SDS011;27746;52.228;20.890;2022-08-19T05:30:34;31.35;;;12.77;;
42084;SDS011;27746;52.228;20.890;2022-08-19T05:33:01;21.42;;;11.65;;
42084;SDS011;27746;52.228;20.890;2022-08-19T05:35:29;23.70;;;11.10;;
42084;SDS011;27746;52.228;20.890;2022-08-19T05:37:59;21.67;;;12.45;;
42084;SDS011;27746;52.228;20.890;2022-08-19T05:40:26;23.42;;;10.98;;
42084;SDS011;27746;52.228;20.890;2022-08-19T05:42:53;24.05;;;11.55;;
42084;SDS011;27746;52.228;20.890;2022-08-19T05:45:20;17.52;;;10.25;;
42084;SDS011;27746;52.228;20.890;2022-08-19T05:47:47;20.77;;;10.52;;
42084;SDS011;27746;52.228;20.890;2022-08-19T05:50:14;26.85;;;11.48;;
42084;SDS011;27746;52.228;20.890;2022-08-19T05:52:43;23.15;;;10.40;;
42084;SDS011;27746;52.228;20.890;2022-08-19T05:55:11;16.55;;;10.25;;
42084;SDS011;27746;52.228;20.890;2022-08-19T05:57:38;27.75;;;10.15;;
42084;SDS011;27746;52.228;20.890;2022-08-19T06:00:06;22.73;;;10.32;;
42084;SDS011;27746;52.228;20.890;2022-08-19T06:02:35;32.50;;;11.52;;
42084;SDS011;27746;52.228;20.890;2022-08-19T06:05:02;21.70;;;9.90;;
42084;SDS011;27746;52.228;20.890;2022-08-19T06:07:31;34.22;;;11.88;;
42084;SDS011;27746;52.228;20.890;2022-08-19T06:09:59;31.50;;;11.68;;
42084;SDS011;27746;52.228;20.890;2022-08-19T06:12:26;19.10;;;10.43;;
42084;SDS011;27746;52.228;20.890;2022-08-19T06:14:56;19.00;;;9.85;;
42084;SDS011;27746;52.228;20.890;2022-08-19T06:17:23;22.10;;;9.95;;
42084;SDS011;27746;52.228;20.890;2022-08-19T06:19:51;25.23;;;10.20;;
42084;SDS011;27746;52.228;20.890;2022-08-19T06:22:17;16.80;;;10.00;;
42084;SDS011;27746;52.228;20.890;2022-08-19T06:24:44;22.10;;;10.27;;
42084;SDS011;27746;52.228;20.890;2022-08-19T06:27:14;25.48;;;10.52;;
42084;SDS011;27746;52.228;20.890;2022-08-19T06:29:41;26.48;;;10.60;;
42084;SDS011;27746;52.228;20.890;2022-08-19T06:32:08;29.10;;;9.77;;
42084;SDS011;27746;52.228;20.890;2022-08-19T06:34:36;16.10;;;9.18;;
42084;SDS011;27746;52.228;20.890;2022-08-19T06:37:03;22.85;;;9.40;;
42084;SDS011;27746;52.228;20.890;2022-08-19T06:39:31;16.83;;;8.57;;
42084;SDS011;27746;52.228;20.890;2022-08-19T06:42:00;21.23;;;8.60;;
42084;SDS011;27746;52.228;20.890;2022-08-19T06:44:33;20.02;;;10.07;;
42084;SDS011;27746;52.228;20.890;2022-08-19T06:47:02;25.00;;;9.98;;
42084;SDS011;27746;52.228;20.890;2022-08-19T06:49:30;29.35;;;10.02;;
42084;SDS011;27746;52.228;20.890;2022-08-19T06:51:57;16.15;;;8.52;;
42084;SDS011;27746;52.228;20.890;2022-08-19T06:54:24;17.98;;;9.40;;
42084;SDS011;27746;52.228;20.890;2022-08-19T06:56:53;17.00;;;9.05;;
42084;SDS011;27746;52.228;20.890;2022-08-19T06:59:20;18.08;;;9.80;;
42084;SDS011;27746;52.228;20.890;2022-08-19T07:01:54;20.50;;;9.98;;
42084;SDS011;27746;52.228;20.890;2022-08-19T07:04:24;22.63;;;9.70;;
42084;SDS011;27746;52.228;20.890;2022-08-19T07:06:56;14.27;;;9.23;;
42084;SDS011;27746;52.228;20.890;2022-08-19T07:09:24;21.02;;;10.30;;
42084;SDS011;27746;52.228;20.890;2022-08-19T07:11:51;13.50;;;8.68;;
42084;SDS011;27746;52.228;20.890;2022-08-19T07:14:21;24.63;;;10.27;;
42084;SDS011;27746;52.228;20.890;2022-08-19T07:16:50;17.90;;;10.30;;
42084;SDS011;27746;52.228;20.890;2022-08-19T07:19:21;18.58;;;9.15;;
42084;SDS011;27746;52.228;20.890;2022-08-19T07:21:49;13.45;;;9.23;;
42084;SDS011;27746;52.228;20.890;2022-08-19T07:24:18;17.83;;;9.73;;
42084;SDS011;27746;52.228;20.890;2022-08-19T07:26:45;28.50;;;10.10;;
42084;SDS011;27746;52.228;20.890;2022-08-19T07:29:12;23.90;;;10.82;;
42084;SDS011;27746;52.228;20.890;2022-08-19T07:31:39;23.40;;;9.38;;
42084;SDS011;27746;52.228;20.890;2022-08-19T07:34:06;18.63;;;9.40;;
42084;SDS011;27746;52.228;20.890;2022-08-19T07:36:38;29.23;;;9.80;;
42084;SDS011;27746;52.228;20.890;2022-08-19T07:39:08;21.45;;;10.77;;
42084;SDS011;27746;52.228;20.890;2022-08-19T07:41:37;25.13;;;10.57;;
42084;SDS011;27746;52.228;20.890;2022-08-19T07:44:04;20.40;;;9.90;;
42084;SDS011;27746;52.228;20.890;2022-08-19T07:46:32;20.83;;;9.02;;
42084;SDS011;27746;52.228;20.890;2022-08-19T07:49:02;24.85;;;9.40;;
42084;SDS011;27746;52.228;20.890;2022-08-19T07:51:29;34.70;;;10.80;;
42084;SDS011;27746;52.228;20.890;2022-08-19T07:53:59;16.00;;;9.15;;
42084;SDS011;27746;52.228;20.890;2022-08-19T07:56:27;15.13;;;9.25;;
42084;SDS011;27746;52.228;20.890;2022-08-19T07:58:54;15.95;;;8.77;;
42084;SDS011;27746;52.228;20.890;2022-08-19T08:01:22;27.98;;;9.52;;
42084;SDS011;27746;52.228;20.890;2022-08-19T08:03:51;17.35;;;9.40;;
42084;SDS011;27746;52.228;20.890;2022-08-19T08:06:36;14.35;;;9.18;;
42084;SDS011;27746;52.228;20.890;2022-08-19T08:09:23;21.05;;;9.18;;
42084;SDS011;27746;52.228;20.890;2022-08-19T08:11:59;11.70;;;8.18;;
42084;SDS011;27746;52.228;20.890;2022-08-19T08:14:29;17.08;;;8.40;;
42084;SDS011;27746;52.228;20.890;2022-08-19T08:16:58;17.45;;;8.45;;
42084;SDS011;27746;52.228;20.890;2022-08-19T08:19:26;37.85;;;9.68;;
42084;SDS011;27746;52.228;20.890;2022-08-19T08:21:55;22.25;;;8.90;;
42084;SDS011;27746;52.228;20.890;2022-08-19T08:24:25;15.80;;;8.00;;
42084;SDS011;27746;52.228;20.890;2022-08-19T08:26:56;18.40;;;7.88;;
42084;SDS011;27746;52.228;20.890;2022-08-19T08:29:24;14.40;;;9.13;;
42084;SDS011;27746;52.228;20.890;2022-08-19T08:31:52;15.25;;;8.50;;
42084;SDS011;27746;52.228;20.890;2022-08-19T08:34:19;16.08;;;8.43;;
42084;SDS011;27746;52.228;20.890;2022-08-19T08:36:47;15.55;;;9.25;;
42084;SDS011;27746;52.228;20.890;2022-08-19T08:39:16;17.17;;;8.63;;
42084;SDS011;27746;52.228;20.890;2022-08-19T08:41:49;19.33;;;9.30;;
42084;SDS011;27746;52.228;20.890;2022-08-19T08:44:27;15.38;;;8.93;;
42084;SDS011;27746;52.228;20.890;2022-08-19T08:47:09;24.42;;;9.13;;
42084;SDS011;27746;52.228;20.890;2022-08-19T08:49:41;27.27;;;9.65;;
42084;SDS011;27746;52.228;20.890;2022-08-19T08:54:46;19.42;;;9.65;;
42084;SDS011;27746;52.228;20.890;2022-08-19T08:57:17;19.08;;;9.70;;
42084;SDS011;27746;52.228;20.890;2022-08-19T08:59:49;22.65;;;9.23;;
42084;SDS011;27746;52.228;20.890;2022-08-19T09:02:25;14.80;;;8.98;;
42084;SDS011;27746;52.228;20.890;2022-08-19T09:04:57;20.58;;;9.23;;
42084;SDS011;27746;52.228;20.890;2022-08-19T09:07:26;22.90;;;8.90;;
42084;SDS011;27746;52.228;20.890;2022-08-19T09:10:02;13.70;;;9.32;;
42084;SDS011;27746;52.228;20.890;2022-08-19T09:12:38;16.40;;;8.48;;
42084;SDS011;27746;52.228;20.890;2022-08-19T09:15:12;26.73;;;10.00;;
42084;SDS011;27746;52.228;20.890;2022-08-19T09:17:41;24.38;;;9.45;;
42084;SDS011;27746;52.228;20.890;2022-08-19T09:20:13;19.30;;;9.15;;
42084;SDS011;27746;52.228;20.890;2022-08-19T09:22:43;45.03;;;10.70;;
42084;SDS011;27746;52.228;20.890;2022-08-19T09:25:13;25.73;;;9.48;;
42084;SDS011;27746;52.228;20.890;2022-08-19T09:27:44;18.13;;;8.10;;
42084;SDS011;27746;52.228;20.890;2022-08-19T09:30:13;39.85;;;9.65;;
42084;SDS011;27746;52.228;20.890;2022-08-19T09:32:42;22.70;;;8.80;;
42084;SDS011;27746;52.228;20.890;2022-08-19T09:35:10;18.38;;;8.20;;
42084;SDS011;27746;52.228;20.890;2022-08-19T09:37:39;11.23;;;7.85;;
42084;SDS011;27746;52.228;20.890;2022-08-19T09:40:06;15.55;;;7.35;;
42084;SDS011;27746;52.228;20.890;2022-08-19T09:42:34;13.18;;;7.15;;
42084;SDS011;27746;52.228;20.890;2022-08-19T09:45:02;12.00;;;6.78;;
42084;SDS011;27746;52.228;20.890;2022-08-19T09:47:30;12.75;;;7.22;;
42084;SDS011;27746;52.228;20.890;2022-08-19T09:49:57;12.23;;;7.15;;
42084;SDS011;27746;52.228;20.890;2022-08-19T09:52:24;19.88;;;7.45;;
42084;SDS011;27746;52.228;20.890;2022-08-19T09:54:51;21.23;;;7.53;;
42084;SDS011;27746;52.228;20.890;2022-08-19T09:57:18;17.65;;;7.80;;
42084;SDS011;27746;52.228;20.890;2022-08-19T09:59:45;15.75;;;7.38;;
42084;SDS011;27746;52.228;20.890;2022-08-19T10:02:15;16.65;;;7.70;;
42084;SDS011;27746;52.228;20.890;2022-08-19T10:04:42;17.90;;;7.90;;
42084;SDS011;27746;52.228;20.890;2022-08-19T10:07:28;11.85;;;8.23;;
42084;SDS011;27746;52.228;20.890;2022-08-19T10:09:55;30.75;;;8.73;;
42084;SDS011;27746;52.228;20.890;2022-08-19T10:12:22;21.13;;;7.90;;
42084;SDS011;27746;52.228;20.890;2022-08-19T10:14:49;17.60;;;7.22;;
42084;SDS011;27746;52.228;20.890;2022-08-19T10:17:19;23.17;;;8.05;;
42084;SDS011;27746;52.228;20.890;2022-08-19T10:19:46;22.85;;;7.47;;
42084;SDS011;27746;52.228;20.890;2022-08-19T10:22:13;12.48;;;6.47;;
42084;SDS011;27746;52.228;20.890;2022-08-19T10:24:41;15.27;;;7.47;;
42084;SDS011;27746;52.228;20.890;2022-08-19T10:27:07;16.75;;;6.97;;
42084;SDS011;27746;52.228;20.890;2022-08-19T10:29:34;10.88;;;6.57;;
42084;SDS011;27746;52.228;20.890;2022-08-19T10:32:02;11.80;;;6.85;;
42084;SDS011;27746;52.228;20.890;2022-08-19T10:34:32;11.38;;;7.03;;
42084;SDS011;27746;52.228;20.890;2022-08-19T10:37:00;17.63;;;7.45;;
42084;SDS011;27746;52.228;20.890;2022-08-19T10:39:27;10.07;;;6.75;;
42084;SDS011;27746;52.228;20.890;2022-08-19T10:41:55;15.10;;;7.07;;
42084;SDS011;27746;52.228;20.890;2022-08-19T10:44:23;14.82;;;7.30;;
42084;SDS011;27746;52.228;20.890;2022-08-19T10:46:50;15.55;;;6.68;;
42084;SDS011;27746;52.228;20.890;2022-08-19T10:49:17;15.68;;;6.78;;
42084;SDS011;27746;52.228;20.890;2022-08-19T10:51:47;20.35;;;7.85;;
42084;SDS011;27746;52.228;20.890;2022-08-19T10:54:32;22.88;;;7.13;;
42084;SDS011;27746;52.228;20.890;2022-08-19T10:57:16;14.80;;;6.72;;
42084;SDS011;27746;52.228;20.890;2022-08-19T10:59:43;16.83;;;6.90;;
42084;SDS011;27746;52.228;20.890;2022-08-19T11:02:11;12.15;;;6.82;;
42084;SDS011;27746;52.228;20.890;2022-08-19T11:04:38;20.27;;;7.40;;
42084;SDS011;27746;52.228;20.890;2022-08-19T11:07:08;16.55;;;6.70;;
42084;SDS011;27746;52.228;20.890;2022-08-19T11:09:39;16.02;;;7.70;;
42084;SDS011;27746;52.228;20.890;2022-08-19T11:12:07;17.77;;;7.93;;
42084;SDS011;27746;52.228;20.890;2022-08-19T11:14:34;25.55;;;7.07;;
42084;SDS011;27746;52.228;20.890;2022-08-19T11:17:01;14.43;;;7.15;;
42084;SDS011;27746;52.228;20.890;2022-08-19T11:19:29;18.50;;;7.05;;
42084;SDS011;27746;52.228;20.890;2022-08-19T11:21:56;21.48;;;7.40;;
42084;SDS011;27746;52.228;20.890;2022-08-19T11:24:29;13.85;;;7.00;;
42084;SDS011;27746;52.228;20.890;2022-08-19T11:27:00;13.90;;;7.38;;
42084;SDS011;27746;52.228;20.890;2022-08-19T11:29:29;12.10;;;7.38;;
42084;SDS011;27746;52.228;20.890;2022-08-19T11:31:56;26.13;;;8.85;;
42084;SDS011;27746;52.228;20.890;2022-08-19T11:34:26;11.68;;;7.47;;
42084;SDS011;27746;52.228;20.890;2022-08-19T11:36:54;12.32;;;7.45;;
42084;SDS011;27746;52.228;20.890;2022-08-19T11:39:23;12.85;;;7.18;;
42084;SDS011;27746;52.228;20.890;2022-08-19T11:41:52;15.27;;;7.80;;
42084;SDS011;27746;52.228;20.890;2022-08-19T11:44:20;24.42;;;8.18;;
42084;SDS011;27746;52.228;20.890;2022-08-19T11:46:47;15.23;;;7.85;;
42084;SDS011;27746;52.228;20.890;2022-08-19T11:49:17;15.90;;;8.15;;
42084;SDS011;27746;52.228;20.890;2022-08-19T11:51:46;16.92;;;7.78;;
42084;SDS011;27746;52.228;20.890;2022-08-19T11:54:15;17.88;;;7.60;;
42084;SDS011;27746;52.228;20.890;2022-08-19T11:56:43;18.40;;;7.55;;
42084;SDS011;27746;52.228;20.890;2022-08-19T11:59:11;19.65;;;7.03;;
42084;SDS011;27746;52.228;20.890;2022-08-19T12:01:39;11.57;;;7.10;;
42084;SDS011;27746;52.228;20.890;2022-08-19T12:04:07;14.27;;;7.07;;
42084;SDS011;27746;52.228;20.890;2022-08-19T12:06:37;19.65;;;6.93;;
42084;SDS011;27746;52.228;20.890;2022-08-19T12:09:08;24.40;;;7.55;;
42084;SDS011;27746;52.228;20.890;2022-08-19T12:11:35;11.02;;;7.35;;
42084;SDS011;27746;52.228;20.890;2022-08-19T12:14:02;13.00;;;6.65;;
42084;SDS011;27746;52.228;20.890;2022-08-19T12:16:31;14.02;;;6.43;;
42084;SDS011;27746;52.228;20.890;2022-08-19T12:19:00;19.30;;;7.38;;
42084;SDS011;27746;52.228;20.890;2022-08-19T12:21:30;15.43;;;6.55;;
42084;SDS011;27746;52.228;20.890;2022-08-19T12:23:59;20.27;;;7.50;;
42084;SDS011;27746;52.228;20.890;2022-08-19T12:26:28;25.52;;;7.82;;
42084;SDS011;27746;52.228;20.890;2022-08-19T12:28:56;19.48;;;6.75;;
42084;SDS011;27746;52.228;20.890;2022-08-19T12:31:25;9.85;;;6.75;;
42084;SDS011;27746;52.228;20.890;2022-08-19T12:33:54;12.63;;;6.25;;
42084;SDS011;27746;52.228;20.890;2022-08-19T12:36:21;14.43;;;6.20;;
42084;SDS011;27746;52.228;20.890;2022-08-19T12:38:50;14.90;;;6.50;;
42084;SDS011;27746;52.228;20.890;2022-08-19T12:41:18;12.90;;;6.57;;
42084;SDS011;27746;52.228;20.890;2022-08-19T12:43:46;11.15;;;6.95;;
42084;SDS011;27746;52.228;20.890;2022-08-19T12:46:14;14.30;;;6.50;;
42084;SDS011;27746;52.228;20.890;2022-08-19T12:48:41;12.27;;;6.15;;
42084;SDS011;27746;52.228;20.890;2022-08-19T12:51:11;13.10;;;5.80;;
42084;SDS011;27746;52.228;20.890;2022-08-19T12:53:39;13.88;;;7.18;;
42084;SDS011;27746;52.228;20.890;2022-08-19T12:56:07;11.77;;;5.95;;
42084;SDS011;27746;52.228;20.890;2022-08-19T12:58:36;16.60;;;5.97;;
42084;SDS011;27746;52.228;20.890;2022-08-19T13:01:06;11.73;;;6.78;;
42084;SDS011;27746;52.228;20.890;2022-08-19T13:06:02;15.70;;;6.05;;
42084;SDS011;27746;52.228;20.890;2022-08-19T13:08:30;25.45;;;7.13;;
42084;SDS011;27746;52.228;20.890;2022-08-19T13:10:57;14.05;;;6.80;;
42084;SDS011;27746;52.228;20.890;2022-08-19T13:13:24;29.85;;;7.80;;
42084;SDS011;27746;52.228;20.890;2022-08-19T13:15:51;12.15;;;6.05;;
42084;SDS011;27746;52.228;20.890;2022-08-19T13:18:18;24.02;;;7.40;;
42084;SDS011;27746;52.228;20.890;2022-08-19T13:20:45;16.73;;;6.65;;
42084;SDS011;27746;52.228;20.890;2022-08-19T13:23:12;12.18;;;6.18;;
42084;SDS011;27746;52.228;20.890;2022-08-19T13:25:40;9.30;;;6.25;;
42084;SDS011;27746;52.228;20.890;2022-08-19T13:28:07;15.35;;;6.10;;
42084;SDS011;27746;52.228;20.890;2022-08-19T13:30:34;14.65;;;7.53;;
42084;SDS011;27746;52.228;20.890;2022-08-19T13:33:18;23.38;;;7.53;;
42084;SDS011;27746;52.228;20.890;2022-08-19T13:35:46;17.10;;;6.80;;
42084;SDS011;27746;52.228;20.890;2022-08-19T13:38:15;26.20;;;6.97;;
42084;SDS011;27746;52.228;20.890;2022-08-19T13:40:45;8.80;;;6.07;;
42084;SDS011;27746;52.228;20.890;2022-08-19T13:43:14;18.17;;;6.57;;
42084;SDS011;27746;52.228;20.890;2022-08-19T13:45:42;12.00;;;5.78;;
42084;SDS011;27746;52.228;20.890;2022-08-19T13:48:09;12.73;;;6.13;;
42084;SDS011;27746;52.228;20.890;2022-08-19T13:50:38;21.77;;;6.45;;
42084;SDS011;27746;52.228;20.890;2022-08-19T13:53:06;15.57;;;6.88;;
42084;SDS011;27746;52.228;20.890;2022-08-19T13:55:34;16.85;;;6.68;;
42084;SDS011;27746;52.228;20.890;2022-08-19T13:58:04;15.93;;;6.07;;
42084;SDS011;27746;52.228;20.890;2022-08-19T14:00:31;12.38;;;6.10;;
42084;SDS011;27746;52.228;20.890;2022-08-19T14:03:00;19.05;;;6.25;;
42084;SDS011;27746;52.228;20.890;2022-08-19T14:05:27;11.32;;;5.97;;
42084;SDS011;27746;52.228;20.890;2022-08-19T14:07:56;25.75;;;6.60;;
42084;SDS011;27746;52.228;20.890;2022-08-19T14:10:23;16.63;;;6.20;;
42084;SDS011;27746;52.228;20.890;2022-08-19T14:12:52;22.45;;;7.20;;
42084;SDS011;27746;52.228;20.890;2022-08-19T14:15:22;20.42;;;6.60;;
42084;SDS011;27746;52.228;20.890;2022-08-19T14:17:49;13.75;;;5.68;;
42084;SDS011;27746;52.228;20.890;2022-08-19T14:20:16;16.75;;;6.47;;
42084;SDS011;27746;52.228;20.890;2022-08-19T14:22:43;12.80;;;6.57;;
42084;SDS011;27746;52.228;20.890;2022-08-19T14:25:12;14.30;;;5.50;;
42084;SDS011;27746;52.228;20.890;2022-08-19T14:27:41;14.40;;;6.20;;
42084;SDS011;27746;52.228;20.890;2022-08-19T14:30:09;16.70;;;6.30;;
42084;SDS011;27746;52.228;20.890;2022-08-19T14:32:40;11.18;;;5.65;;